createdAt,value
2019-03-01T00:03:07.120Z,84.72
2019-03-01T00:08:14.549Z,84.59
2019-03-01T00:13:54.454Z,84.76
2019-03-01T00:19:34.234Z,84.62
2019-03-01T00:25:12.538Z,84.26
2019-03-01T00:30:45.266Z,84.11
2019-03-01T00:36:30.729Z,84.56
2019-03-01T00:42:00.242Z,83.40
2019-03-01T00:47:05.455Z,83.75
2019-03-01T00:52:10.452Z,83.40
2019-03-01T00:57:12.786Z,83.69
2019-03-01T01:02:14.839Z,82.56
2019-03-01T01:07:17.639Z,82.21
2019-03-01T01:12:19.688Z,82.79
2019-03-01T01:17:23.767Z,82.53
2019-03-01T01:22:25.857Z,82.64
2019-03-01T01:27:32.988Z,81.74
2019-03-01T01:32:40.480Z,81.75
2019-03-01T01:37:45.301Z,79.79
2019-03-01T01:42:47.383Z,80.42
2019-03-01T01:47:49.483Z,80.23
2019-03-01T01:52:51.544Z,82.06
2019-03-01T01:57:55.917Z,81.15
2019-03-01T02:02:59.296Z,81.56
2019-03-01T02:08:06.054Z,81.04
2019-03-01T02:13:08.229Z,80.48
2019-03-01T02:18:10.273Z,80.38
2019-03-01T02:23:15.184Z,81.33
2019-03-01T02:28:19.529Z,81.64
2019-03-01T02:33:26.773Z,81.83
2019-03-01T02:38:33.676Z,82.01
2019-03-01T02:43:35.934Z,80.92
2019-03-01T02:48:38.006Z,79.83
2019-03-01T02:53:40.243Z,81.14
2019-03-01T02:58:43.369Z,80.06
2019-03-01T03:03:46.351Z,80.28
2019-03-01T03:08:48.444Z,80.12
2019-03-01T03:13:51.733Z,80.57
2019-03-01T03:18:55.742Z,80.65
2019-03-01T03:23:59.176Z,82.51
2019-03-01T03:29:01.188Z,81.98
2019-03-01T03:34:13.502Z,84.04
2019-03-01T03:39:18.328Z,82.98
2019-03-01T03:44:20.654Z,83.15
2019-03-01T03:49:22.716Z,83.37
2019-03-01T03:54:24.874Z,82.46
2019-03-01T03:59:26.897Z,82.57
2019-03-01T04:04:29.148Z,84.20
2019-03-01T04:09:31.260Z,84.04
2019-03-01T04:14:33.425Z,84.46
2019-03-01T04:19:38.590Z,83.39
2019-03-01T04:24:42.526Z,82.99
2019-03-01T04:29:44.569Z,81.83
2019-03-01T04:34:48.067Z,83.14
2019-03-01T04:39:51.609Z,82.62
2019-03-01T04:44:57.674Z,82.48
2019-03-01T04:49:59.702Z,82.36
2019-03-01T04:55:04.062Z,82.34
2019-03-01T05:00:09.099Z,81.76
2019-03-01T05:05:14.654Z,83.67
2019-03-01T05:10:16.910Z,82.10
2019-03-01T05:15:22.697Z,82.51
2019-03-01T05:20:24.740Z,83.14
2019-03-01T05:25:29.495Z,82.81
2019-03-01T05:30:36.732Z,83.17
2019-03-01T05:35:38.926Z,83.63
2019-03-01T05:40:40.986Z,83.66
2019-03-01T05:45:48.525Z,83.21
2019-03-01T05:50:56.135Z,84.23
2019-03-01T05:55:58.200Z,83.92
2019-03-01T06:01:09.753Z,83.89
2019-03-01T06:06:15.382Z,83.92
2019-03-01T06:11:38.115Z,84.62
2019-03-01T06:17:07.927Z,85.06
2019-03-01T06:23:06.904Z,85.48
2019-03-01T06:28:50.641Z,82.56
2019-03-01T06:34:29.123Z,83.63
2019-03-01T06:40:38.061Z,84.73
2019-03-01T06:46:20.271Z,83.43
2019-03-01T06:51:33.670Z,84.63
2019-03-01T06:56:35.833Z,84.02
2019-03-01T07:01:43.903Z,85.87
2019-03-01T07:06:48.972Z,84.57
2019-03-01T07:11:53.252Z,84.53
2019-03-01T07:16:57.311Z,84.00
2019-03-01T07:22:00.920Z,82.39
2019-03-01T07:27:03.056Z,83.20
2019-03-01T07:32:05.160Z,83.23
2019-03-01T07:37:07.304Z,84.71
2019-03-01T07:42:10.589Z,83.52
2019-03-01T07:47:15.403Z,83.01
2019-03-01T07:52:17.499Z,83.33
2019-03-01T07:57:22.714Z,83.01
2019-03-01T08:02:24.862Z,83.80
2019-03-01T08:07:29.939Z,83.71
2019-03-01T08:12:33.076Z,82.25
2019-03-01T08:17:37.278Z,83.52
2019-03-01T08:22:48.082Z,83.51
2019-03-01T08:27:46.343Z,82.89
2019-03-01T08:32:49.013Z,79.27
2019-03-01T08:37:53.500Z,78.28
2019-03-01T08:42:55.389Z,79.87
2019-03-01T08:47:58.885Z,79.71
2019-03-01T08:53:06.224Z,78.67
2019-03-01T08:58:08.304Z,79.91
2019-03-01T09:03:23.310Z,79.91
2019-03-01T09:08:26.479Z,81.25
2019-03-01T09:13:28.983Z,80.22
2019-03-01T09:18:31.111Z,79.02
2019-03-01T09:23:36.276Z,77.86
2019-03-01T09:28:39.685Z,79.50
2019-03-01T09:33:42.336Z,79.58
2019-03-01T09:38:45.908Z,77.49
2019-03-01T09:43:48.002Z,76.82
2019-03-01T09:48:50.526Z,77.32
2019-03-01T09:53:52.651Z,77.57
2019-03-01T09:58:57.342Z,77.01
2019-03-01T10:04:02.427Z,76.96
2019-03-01T10:09:09.898Z,78.28
2019-03-01T10:14:12.151Z,76.57
2019-03-01T10:19:17.086Z,76.08
2019-03-01T10:24:19.293Z,74.86
2019-03-01T10:29:25.415Z,76.63
2019-03-01T10:34:27.804Z,75.20
2019-03-01T10:39:33.008Z,74.02
2019-03-01T10:44:35.326Z,75.71
2019-03-01T10:49:40.135Z,76.54
2019-03-01T10:54:42.155Z,73.89
2019-03-01T10:59:47.375Z,73.07
2019-03-01T11:04:51.739Z,75.18
2019-03-01T11:09:54.316Z,70.82
2019-03-01T11:14:59.610Z,68.58
2019-03-01T11:20:01.625Z,69.83
2019-03-01T11:25:06.458Z,70.83
2019-03-01T11:30:12.366Z,67.75
2019-03-01T11:35:15.861Z,66.24
2019-03-01T11:40:23.625Z,65.72
2019-03-01T11:45:28.069Z,62.33
2019-03-01T11:50:31.598Z,63.96
2019-03-01T11:55:36.808Z,65.04
2019-03-01T12:00:41.196Z,64.90
2019-03-01T12:05:43.574Z,64.82
2019-03-01T12:10:45.867Z,65.23
2019-03-01T12:15:51.276Z,65.97
2019-03-01T12:20:53.367Z,66.74
2019-03-01T12:25:55.409Z,66.60
2019-03-01T12:31:04.878Z,66.69
2019-03-01T12:36:07.057Z,66.67
2019-03-01T12:41:09.129Z,65.92
2019-03-01T12:46:12.641Z,64.50
2019-03-01T12:51:14.841Z,63.18
2019-03-01T12:56:17.235Z,66.14
2019-03-01T13:01:23.998Z,65.33
2019-03-01T13:06:27.389Z,64.96
2019-03-01T13:11:29.531Z,63.96
2019-03-01T13:16:33.977Z,64.36
2019-03-01T13:21:36.136Z,64.77
2019-03-01T13:26:40.815Z,65.86
2019-03-01T13:31:47.112Z,65.69
2019-03-01T13:36:48.355Z,63.96
2019-03-01T13:41:50.460Z,63.01
2019-03-01T13:46:55.346Z,61.50
2019-03-01T13:51:57.463Z,61.43
2019-03-01T13:57:03.924Z,62.07
2019-03-01T14:02:08.514Z,60.97
2019-03-01T14:07:10.716Z,61.98
2019-03-01T14:12:12.969Z,61.69
2019-03-01T14:17:15.281Z,60.98
2019-03-01T14:22:18.488Z,62.17
2019-03-01T14:27:20.775Z,63.11
2019-03-01T14:32:24.606Z,62.15
2019-03-01T14:37:27.079Z,61.53
2019-03-01T14:42:29.149Z,61.17
2019-03-01T14:47:32.728Z,62.59
2019-03-01T14:52:35.497Z,62.42
2019-03-01T14:57:43.068Z,62.75
2019-03-01T15:03:23.687Z,65.92
2019-03-01T15:08:26.061Z,64.86
2019-03-01T15:13:34.838Z,65.39
2019-03-01T15:18:36.102Z,65.22
2019-03-01T15:23:38.142Z,63.85
2019-03-01T15:28:44.681Z,63.07
2019-03-01T15:33:51.222Z,61.33
2019-03-01T15:38:55.568Z,62.00
2019-03-01T15:43:57.756Z,63.86
2019-03-01T15:48:59.821Z,63.25
2019-03-01T15:54:02.036Z,64.60
2019-03-01T15:59:06.007Z,63.63
2019-03-01T16:04:10.680Z,63.13
2019-03-01T16:09:21.740Z,64.68
2019-03-01T16:14:24.311Z,65.58
2019-03-01T16:19:26.866Z,66.03
2019-03-01T16:24:28.923Z,65.93
2019-03-01T16:29:33.622Z,67.20
2019-03-01T16:34:37.787Z,65.70
2019-03-01T16:39:41.475Z,67.21
2019-03-01T16:44:44.775Z,67.37
2019-03-01T16:49:47.566Z,66.37
2019-03-01T16:54:52.516Z,65.76
2019-03-01T16:59:56.046Z,67.19
2019-03-01T17:05:03.938Z,67.06
2019-03-01T17:10:15.070Z,68.32
2019-03-01T17:15:25.758Z,66.78
2019-03-01T17:20:28.219Z,68.70
2019-03-01T17:25:31.241Z,68.95
2019-03-01T17:30:36.491Z,69.51
2019-03-01T17:35:40.983Z,69.37
2019-03-01T17:40:43.912Z,70.39
2019-03-01T17:45:46.160Z,70.32
2019-03-01T17:50:50.299Z,70.53
2019-03-01T17:55:52.441Z,70.77
2019-03-01T18:01:02.755Z,71.65
2019-03-01T18:06:03.589Z,70.56
2019-03-01T18:11:08.795Z,69.75
2019-03-01T18:16:11.814Z,69.98
2019-03-01T18:21:14.559Z,69.41
2019-03-01T18:26:19.694Z,69.63
2019-03-01T18:31:23.984Z,70.99
2019-03-01T18:36:28.185Z,69.09
2019-03-01T18:41:30.263Z,69.44
2019-03-01T18:46:33.576Z,70.14
2019-03-01T18:51:43.387Z,70.86
2019-03-01T18:56:44.814Z,70.62
2019-03-01T19:01:48.636Z,72.06
2019-03-01T19:06:52.604Z,70.93
2019-03-01T19:11:54.920Z,71.01
2019-03-01T19:16:57.070Z,72.01
2019-03-01T19:22:02.562Z,70.68
2019-03-01T19:27:04.697Z,70.87
2019-03-01T19:32:06.738Z,71.72
2019-03-01T19:37:10.228Z,71.65
2019-03-01T19:42:13.570Z,71.96
2019-03-01T19:47:15.743Z,71.88
2019-03-01T19:52:20.177Z,71.73
2019-03-01T19:57:22.802Z,71.95
2019-03-01T20:02:30.983Z,71.78
2019-03-01T20:07:35.572Z,72.13
2019-03-01T20:12:40.605Z,72.59
2019-03-01T20:17:44.615Z,71.78
2019-03-01T20:22:50.555Z,71.36
2019-03-01T20:27:53.103Z,71.53
2019-03-01T20:32:55.218Z,72.32
2019-03-01T20:38:00.175Z,71.70
2019-03-01T20:43:06.704Z,71.99
2019-03-01T20:48:11.862Z,71.52
2019-03-01T20:53:14.347Z,72.23
2019-03-01T20:58:39.565Z,73.72
2019-03-01T21:03:43.744Z,73.77
2019-03-01T21:08:46.189Z,74.62
2019-03-01T21:13:51.398Z,75.56
2019-03-01T21:18:57.481Z,74.84
2019-03-01T21:23:59.745Z,74.65
2019-03-01T21:29:04.599Z,74.88
2019-03-01T21:34:09.919Z,74.09
2019-03-01T21:39:20.626Z,74.76
2019-03-01T21:44:24.692Z,74.84
2019-03-01T21:49:32.229Z,74.49
2019-03-01T21:54:34.352Z,74.87
2019-03-01T22:04:49.883Z,75.24
2019-03-01T22:10:02.584Z,74.53
2019-03-01T22:15:08.676Z,74.53
2019-03-01T22:20:10.840Z,74.75
2019-03-01T22:25:21.955Z,74.09
2019-03-01T22:30:25.703Z,74.66
2019-03-01T22:35:27.958Z,74.89
2019-03-01T22:40:31.277Z,74.89
2019-03-01T22:45:34.395Z,74.91
2019-03-01T22:50:39.478Z,74.93
2019-03-01T22:55:40.858Z,75.79
2019-03-01T23:01:17.299Z,75.00
2019-03-01T23:06:20.995Z,74.71
2019-03-01T23:11:32.404Z,74.45
2019-03-01T23:16:32.986Z,74.35
2019-03-01T23:21:35.891Z,76.31
2019-03-01T23:26:39.063Z,77.27
2019-03-01T23:31:41.066Z,77.67
2019-03-01T23:36:44.381Z,78.97
2019-03-01T23:41:50.433Z,78.04
2019-03-01T23:46:52.535Z,78.81
2019-03-01T23:51:56.549Z,79.59
2019-03-01T23:57:01.914Z,79.75
